Time;durP1;ratioP1;P1;durP2;ratioP2;P2;SDS_P1;SDS_P2;PMS_P1;PMS_P2;Temp;Humidity;BMP_temperature;BMP_pressure;BME280_temperature;BME280_humidity;BME280_pressure;Samples;Min_cycle;Max_cycle;Signal;HPM_P1;HPM_P2
2020/12/08 00:01:09;;;;;;;26.15;17.48;;;;;;;5.61;67.25;97848.16;4948736;28;20137;-76
2020/12/08 00:03:35;;;;;;;24.45;17.00;;;;;;;5.27;68.72;97857.38;4963108;28;20063;-79
2020/12/08 00:06:00;;;;;;;26.90;17.10;;;;;;;5.58;67.68;97849.94;4957801;28;20042;-79
2020/12/08 00:08:26;;;;;;;25.50;16.60;;;;;;;5.78;67.16;97850.47;4983373;28;20540;-81
2020/12/08 00:10:52;;;;;;;25.42;14.25;;;;;;;5.83;66.79;97852.97;4975987;28;20077;-80
2020/12/08 00:13:18;;;;;;;15.77;10.57;;;;;;;5.69;66.38;97850.63;4952716;28;20062;-81
2020/12/08 00:15:45;;;;;;;14.68;9.60;;;;;;;6.01;65.56;97850.91;4954392;28;20617;-79
2020/12/08 00:18:12;;;;;;;18.25;8.77;;;;;;;5.66;66.68;97854.09;4971247;28;20486;-78
2020/12/08 00:20:38;;;;;;;12.48;8.27;;;;;;;5.96;65.98;97847.56;4957798;28;20592;-77
2020/12/08 00:23:04;;;;;;;14.38;8.20;;;;;;;6.05;65.01;97843.94;4937898;29;20058;-77
2020/12/08 00:25:33;;;;;;;11.77;7.30;;;;;;;6.27;64.34;97852.16;4964530;28;20028;-77
2020/12/08 00:27:58;;;;;;;13.82;7.05;;;;;;;6.46;64.01;97854.34;4947221;28;20427;-78
2020/12/08 00:30:24;;;;;;;8.85;6.38;;;;;;;5.95;65.03;97853.63;4951171;28;20082;-79
2020/12/08 00:32:50;;;;;;;13.82;6.00;;;;;;;6.07;65.05;97848.22;4932333;28;20494;-78
2020/12/08 00:35:16;;;;;;;11.20;6.40;;;;;;;6.33;64.27;97849.47;4948065;28;20039;-78
2020/12/08 00:37:46;;;;;;;10.77;5.90;;;;;;;6.45;63.57;97844.88;4949534;28;20103;-79
2020/12/08 00:40:13;;;;;;;11.52;6.38;;;;;;;6.01;64.79;97850.91;4944568;28;20152;-78
2020/12/08 00:42:39;;;;;;;9.65;5.53;;;;;;;6.15;64.49;97858.44;4930664;29;20046;-79
2020/12/08 00:45:07;;;;;;;10.80;6.07;;;;;;;6.24;64.74;97853.06;4934867;29;20047;-78
2020/12/08 00:47:33;;;;;;;9.18;6.38;;;;;;;6.30;64.81;97862.47;4953102;28;20074;-78
2020/12/08 00:49:59;;;;;;;9.63;5.60;;;;;;;5.94;65.73;97861.44;4936048;29;20050;-77
2020/12/08 00:52:25;;;;;;;10.85;6.38;;;;;;;6.47;64.12;97863.00;4933007;29;20078;-78
2020/12/08 00:54:50;;;;;;;8.93;5.90;;;;;;;6.45;63.93;97867.34;4948792;28;20109;-78
2020/12/08 00:57:20;;;;;;;8.00;5.75;;;;;;;6.33;63.99;97858.06;4949016;28;20046;-79
2020/12/08 00:59:47;;;;;;;9.88;5.40;;;;;;;6.49;64.15;97867.25;4955259;28;20503;-78
2020/12/08 01:02:19;;;;;;;9.00;6.03;;;;;;;6.79;63.02;97863.16;4933207;28;20126;-78
2020/12/08 01:04:45;;;;;;;12.05;6.10;;;;;;;6.78;63.04;97865.78;4945513;28;20039;-78
2020/12/08 01:07:12;;;;;;;7.55;5.57;;;;;;;6.50;64.05;97863.78;4934762;29;20031;-78
2020/12/08 01:09:38;;;;;;;9.70;6.32;;;;;;;6.40;63.99;97864.00;4948783;28;20800;-79
2020/12/08 01:12:05;;;;;;;6.75;4.93;;;;;;;6.39;64.58;97857.94;4965772;28;20031;-78
2020/12/08 01:14:31;;;;;;;8.15;4.80;;;;;;;6.55;63.65;97855.91;4946736;28;20086;-78
2020/12/08 01:17:03;;;;;;;6.65;3.75;;;;;;;6.57;64.10;97856.72;4970569;28;20035;-78
2020/12/08 01:19:28;;;;;;;7.67;4.87;;;;;;;6.70;63.59;97860.78;4972216;28;20103;-78
2020/12/08 01:21:55;;;;;;;7.32;4.30;;;;;;;6.54;64.02;97862.81;4946459;29;20070;-77
2020/12/08 01:24:21;;;;;;;6.05;3.45;;;;;;;6.40;64.12;97856.22;4953959;28;20122;-79
2020/12/08 01:26:47;;;;;;;8.80;4.13;;;;;;;6.84;63.06;97861.34;4947687;28;20201;-78
2020/12/08 01:29:13;;;;;;;7.28;4.20;;;;;;;6.66;62.78;97859.13;4954878;28;20463;-80
2020/12/08 01:31:39;;;;;;;7.32;3.60;;;;;;;6.74;62.97;97870.19;4952991;28;20435;-79
2020/12/08 01:34:07;;;;;;;7.45;3.40;;;;;;;6.99;61.89;97865.34;4938189;28;20047;-78
2020/12/08 01:36:36;;;;;;;6.28;3.45;;;;;;;7.13;61.31;97876.25;4953422;28;20067;-78
2020/12/08 01:39:06;;;;;;;5.93;3.13;;;;;;;7.00;61.15;97870.47;4937519;29;20035;-78
2020/12/08 01:41:32;;;;;;;5.60;3.28;;;;;;;7.42;59.87;97875.56;4962918;28;20039;-78
2020/12/08 01:43:58;;;;;;;7.72;3.10;;;;;;;7.34;59.82;97873.16;4935638;29;20039;-78
2020/12/08 01:46:26;;;;;;;5.68;4.07;;;;;;;7.33;59.71;97870.59;4938546;28;20065;-77
2020/12/08 01:48:53;;;;;;;7.85;5.68;;;;;;;7.25;60.41;97868.16;4954174;28;20492;-76
2020/12/08 01:51:21;;;;;;;15.85;6.35;;;;;;;7.43;60.12;97879.88;4952104;28;20050;-78
2020/12/08 01:53:50;;;;;;;10.90;6.60;;;;;;;7.32;60.67;97880.13;4955943;28;20134;-77
2020/12/08 01:56:16;;;;;;;12.25;8.38;;;;;;;7.70;59.44;97884.41;4951303;28;20110;-77
2020/12/08 01:58:41;;;;;;;14.23;10.02;;;;;;;7.06;61.71;97881.59;4947797;28;20583;-78
2020/12/08 02:01:11;;;;;;;16.70;10.40;;;;;;;7.12;62.04;97884.94;4952479;28;20464;-78
2020/12/08 02:03:37;;;;;;;17.88;10.10;;;;;;;7.26;61.51;97882.88;4938657;28;20119;-77
2020/12/08 02:06:03;;;;;;;14.27;8.38;;;;;;;7.33;60.38;97888.78;4939738;29;20347;-78
2020/12/08 02:08:34;;;;;;;14.93;9.00;;;;;;;6.94;61.33;97891.41;4952272;28;20110;-77
2020/12/08 02:11:00;;;;;;;15.48;9.85;;;;;;;7.16;61.00;97893.50;4955914;28;20040;-77
2020/12/08 02:13:26;;;;;;;16.85;10.65;;;;;;;7.02;61.19;97899.00;4938442;29;20086;-78
2020/12/08 02:15:52;;;;;;;17.15;12.02;;;;;;;6.87;61.71;97892.41;4952596;28;20853;-77
2020/12/08 02:18:19;;;;;;;21.00;13.13;;;;;;;6.82;62.27;97885.59;4965723;28;20035;-79
2020/12/08 02:20:49;;;;;;;22.67;14.10;;;;;;;6.49;63.38;97889.75;4947533;29;20115;-78
2020/12/08 02:23:14;;;;;;;24.85;14.25;;;;;;;6.69;62.96;97881.56;4949232;28;20443;-77
2020/12/08 02:25:42;;;;;;;26.02;15.43;;;;;;;6.64;62.88;97894.63;4967962;28;20039;-76
2020/12/08 02:28:08;;;;;;;23.35;13.60;;;;;;;6.76;62.91;97893.53;4933391;29;20035;-76
2020/12/08 02:30:44;;;;;;;25.85;13.95;;;;;;;6.67;63.80;97888.50;4950790;28;20425;-77
2020/12/08 02:33:09;;;;;;;24.55;16.52;;;;;;;6.66;63.73;97895.47;4936985;29;20091;-77
2020/12/08 02:35:35;;;;;;;28.13;17.08;;;;;;;6.99;63.19;97889.56;4948658;28;20135;-77
2020/12/08 02:38:00;;;;;;;26.17;17.55;;;;;;;7.14;62.96;97900.47;4963352;28;20106;-78
2020/12/08 02:40:29;;;;;;;31.15;18.23;;;;;;;7.09;63.11;97898.00;4946392;28;20042;-75
2020/12/08 02:42:55;;;;;;;23.70;16.35;;;;;;;7.08;62.98;97900.59;4950313;28;20486;-79
2020/12/08 02:45:20;;;;;;;27.65;18.35;;;;;;;7.38;62.26;97898.19;4949081;28;20055;-77
2020/12/08 02:47:46;;;;;;;26.30;18.95;;;;;;;7.43;62.00;97898.06;4951964;28;20129;-77
2020/12/08 02:50:12;;;;;;;25.48;18.38;;;;;;;7.24;62.56;97891.59;4937459;29;20050;-77
2020/12/08 02:52:38;;;;;;;25.95;18.58;;;;;;;7.36;61.95;97899.94;4937441;29;20219;-77
2020/12/08 02:55:04;;;;;;;29.80;18.35;;;;;;;7.24;62.12;97908.00;4934863;29;20027;-77
2020/12/08 02:57:30;;;;;;;30.92;17.63;;;;;;;6.85;62.00;97901.97;4950527;28;20399;-77
2020/12/08 02:59:55;;;;;;;29.77;16.42;;;;;;;6.69;63.33;97902.31;4950462;28;20031;-77
2020/12/08 03:02:21;;;;;;;35.08;18.40;;;;;;;6.46;63.54;97911.44;4940900;28;20156;-77
2020/12/08 03:04:46;;;;;;;38.22;23.58;;;;;;;5.81;66.69;97917.75;4945935;28;20024;-77
2020/12/08 03:07:12;;;;;;;38.10;22.05;;;;;;;6.78;63.01;97918.53;4950801;28;20019;-77
2020/12/08 03:09:38;;;;;;;31.20;20.52;;;;;;;6.91;62.43;97917.41;4948768;28;20047;-77
2020/12/08 03:12:08;;;;;;;39.13;23.52;;;;;;;6.35;64.20;97931.50;4936319;28;20336;-78
2020/12/08 03:14:34;;;;;;;43.88;25.40;;;;;;;6.10;65.63;97927.66;4932661;28;20375;-77
2020/12/08 03:17:03;;;;;;;44.25;25.88;;;;;;;5.99;66.07;97935.66;4937438;28;20043;-76
2020/12/08 03:19:28;;;;;;;44.45;24.15;;;;;;;6.06;66.38;97937.22;4940430;29;20034;-78
2020/12/08 03:21:54;;;;;;;47.35;26.88;;;;;;;5.93;67.09;97940.06;4949358;28;20038;-78
2020/12/08 03:24:20;;;;;;;52.92;27.60;;;;;;;6.06;66.65;97937.22;4934995;28;20035;-77
2020/12/08 03:26:45;;;;;;;54.42;29.15;;;;;;;5.98;66.47;97939.09;4935773;28;20070;-78
2020/12/08 03:29:11;;;;;;;42.17;23.27;;;;;;;5.91;67.47;97939.22;4950130;28;20046;-79
2020/12/08 03:31:36;;;;;;;40.03;23.75;;;;;;;6.37;65.77;97931.50;4951531;28;20400;-78
2020/12/08 03:34:02;;;;;;;46.35;26.27;;;;;;;6.72;64.68;97931.63;4957875;28;20041;-78
2020/12/08 03:36:28;;;;;;;39.88;24.38;;;;;;;6.97;64.03;97932.00;4964964;28;20481;-78
2020/12/08 03:38:55;;;;;;;48.63;26.63;;;;;;;6.73;64.03;97924.72;4935960;29;20450;-76
2020/12/08 03:41:23;;;;;;;51.17;27.90;;;;;;;6.08;65.92;97932.03;4933757;28;20039;-77
2020/12/08 03:43:50;;;;;;;52.42;26.83;;;;;;;5.98;66.61;97935.66;4935609;29;20038;-76
2020/12/08 03:46:25;;;;;;;54.60;28.50;;;;;;;6.16;65.86;97918.91;4950428;28;20067;-79
2020/12/08 03:48:52;;;;;;;52.55;28.77;;;;;;;6.04;66.41;97922.59;4953228;28;20035;-75
2020/12/08 03:51:19;;;;;;;56.42;30.63;;;;;;;6.11;66.53;97916.41;4942871;28;20185;-77
2020/12/08 03:53:46;;;;;;;55.15;31.48;;;;;;;6.11;65.97;97924.19;4949588;28;20102;-77
2020/12/08 03:56:13;;;;;;;57.67;31.73;;;;;;;5.72;67.47;97923.09;4932482;28;20051;-77
2020/12/08 03:58:39;;;;;;;56.70;30.63;;;;;;;5.50;68.76;97916.56;4948317;29;20046;-77
2020/12/08 04:01:06;;;;;;;64.28;29.80;;;;;;;5.79;68.03;97922.13;4960146;28;20078;-76
2020/12/08 04:03:32;;;;;;;63.00;30.77;;;;;;;5.43;69.44;97927.88;4935257;29;20046;-76
2020/12/08 04:06:04;;;;;;;60.67;31.90;;;;;;;5.94;67.76;97919.31;4937669;29;20027;-77
2020/12/08 04:08:31;;;;;;;59.67;29.25;;;;;;;5.83;67.93;97925.53;4934048;29;20438;-77
2020/12/08 04:10:57;;;;;;;56.80;28.50;;;;;;;5.91;67.87;97926.25;4939572;29;20050;-77
2020/12/08 04:13:23;;;;;;;57.88;28.33;;;;;;;6.29;66.58;97925.56;4949461;28;20043;-76
2020/12/08 04:15:48;;;;;;;56.58;30.50;;;;;;;6.62;64.86;97931.88;4937033;29;20059;-77
2020/12/08 04:18:15;;;;;;;47.88;27.17;;;;;;;6.76;63.97;97925.50;4942147;28;20046;-78
2020/12/08 04:20:42;;;;;;;33.22;22.42;;;;;;;6.51;64.52;97930.34;4913965;29;20497;-77
2020/12/08 04:23:12;;;;;;;30.85;20.80;;;;;;;6.87;64.15;97933.06;4930583;29;20039;-78
2020/12/08 04:25:39;;;;;;;35.13;20.50;;;;;;;6.87;63.78;97933.06;4946155;28;20046;-77
2020/12/08 04:28:06;;;;;;;32.83;21.73;;;;;;;6.76;64.86;97932.47;4947195;28;20031;-78
2020/12/08 04:30:33;;;;;;;32.05;23.20;;;;;;;7.19;63.57;97940.19;4947601;28;20070;-78
2020/12/08 04:32:58;;;;;;;32.53;22.52;;;;;;;6.89;63.51;97945.16;4947023;28;20083;-77
2020/12/08 04:35:24;;;;;;;39.17;25.83;;;;;;;6.63;64.35;97934.44;4967700;28;20443;-77
2020/12/08 04:37:50;;;;;;;48.78;27.02;;;;;;;6.68;64.63;97940.38;4932132;28;20118;-77
2020/12/08 04:40:15;;;;;;;52.50;28.65;;;;;;;6.59;64.92;97948.34;4934147;28;20142;-78
2020/12/08 04:42:46;;;;;;;47.22;26.80;;;;;;;6.63;64.58;97950.00;4951563;28;20035;-76
2020/12/08 04:45:12;;;;;;;48.80;26.58;;;;;;;6.28;65.72;97953.28;4956538;28;20047;-77
2020/12/08 04:47:42;;;;;;;50.03;29.42;;;;;;;6.40;65.38;97960.81;4932091;29;20028;-77
2020/12/08 04:50:08;;;;;;;48.20;28.30;;;;;;;6.21;66.28;97963.75;4965153;28;20035;-77
2020/12/08 04:52:34;;;;;;;46.83;29.15;;;;;;;6.18;66.56;97959.50;4936620;29;20098;-78
2020/12/08 04:55:02;;;;;;;50.95;27.77;;;;;;;5.90;67.50;97958.28;4938453;28;20035;-77
2020/12/08 04:57:28;;;;;;;52.88;29.23;;;;;;;5.90;67.49;97964.28;4935169;28;20045;-77
2020/12/08 05:00:12;;;;;;;48.72;28.13;;;;;;;6.10;67.14;97959.63;4947929;28;20103;-77
2020/12/08 05:02:55;;;;;;;53.20;30.15;;;;;;;6.08;66.56;97968.31;4952142;28;20570;-78
2020/12/08 05:05:22;;;;;;;48.35;28.13;;;;;;;6.26;66.71;97967.13;4933772;28;20039;-77
2020/12/08 05:07:49;;;;;;;48.38;28.92;;;;;;;6.23;65.99;97970.66;4939100;29;20065;-78
2020/12/08 05:10:25;;;;;;;51.08;29.05;;;;;;;6.19;66.82;97978.50;4936402;29;20039;-77
2020/12/08 05:12:50;;;;;;;58.10;29.88;;;;;;;5.71;68.11;97986.16;4967531;28;20052;-77
2020/12/08 05:15:17;;;;;;;47.50;28.27;;;;;;;6.22;66.28;97994.88;4949366;28;20051;-77
2020/12/08 05:17:46;;;;;;;47.42;27.55;;;;;;;6.12;66.59;97996.75;4947967;28;20027;-79
2020/12/08 05:20:14;;;;;;;45.95;28.15;;;;;;;6.39;65.66;97991.97;4956260;28;20035;-76
2020/12/08 05:22:55;;;;;;;44.20;26.58;;;;;;;6.27;66.00;97982.69;4938534;29;20042;-76
2020/12/08 05:25:25;;;;;;;45.57;26.60;;;;;;;6.59;64.69;97984.66;4951974;28;20125;-77
2020/12/08 05:27:52;;;;;;;40.00;25.35;;;;;;;5.96;67.02;97984.91;4936771;28;20050;-77
2020/12/08 05:30:19;;;;;;;44.05;25.25;;;;;;;6.02;66.69;97978.78;4950904;28;20031;-76
2020/12/08 05:32:45;;;;;;;39.05;24.30;;;;;;;6.11;66.61;97976.91;4971502;28;20121;-77
2020/12/08 05:35:16;;;;;;;39.97;23.23;;;;;;;6.33;65.80;97982.53;4951942;28;20480;-76
2020/12/08 05:37:46;;;;;;;39.97;24.50;;;;;;;6.45;64.93;97977.16;4932358;29;20142;-78
2020/12/08 05:40:14;;;;;;;42.40;25.02;;;;;;;6.42;64.88;97973.75;4951976;28;20071;-76
2020/12/08 05:42:42;;;;;;;37.53;23.75;;;;;;;6.63;64.21;97975.06;4952058;29;20027;-77
2020/12/08 05:45:11;;;;;;;32.42;21.67;;;;;;;6.67;63.94;97977.59;4953154;28;20043;-78
2020/12/08 05:47:46;;;;;;;30.33;19.85;;;;;;;6.79;64.22;97971.31;4929830;29;20039;-77
2020/12/08 05:50:14;;;;;;;27.75;18.35;;;;;;;6.75;64.67;97972.25;4948792;28;20035;-78
2020/12/08 05:52:45;;;;;;;25.02;17.30;;;;;;;6.74;65.08;97974.00;4937222;29;20059;-77
2020/12/08 05:55:17;;;;;;;28.17;19.13;;;;;;;6.80;64.29;97963.50;4938473;29;20190;-78
2020/12/08 05:57:44;;;;;;;26.58;18.77;;;;;;;6.61;64.68;97963.91;4958584;28;20043;-80
2020/12/08 06:00:22;;;;;;;26.67;17.42;;;;;;;6.67;64.41;97964.59;4951010;28;20030;-76
2020/12/08 06:02:48;;;;;;;26.33;16.50;;;;;;;6.60;64.94;97973.41;4932954;28;20130;-78
2020/12/08 06:05:32;;;;;;;22.33;14.75;;;;;;;6.81;64.45;97975.56;4934171;29;20458;-77
2020/12/08 06:07:59;;;;;;;19.73;14.10;;;;;;;6.84;64.71;97977.28;4933293;29;20113;-77
2020/12/08 06:10:25;;;;;;;24.25;15.73;;;;;;;6.98;63.99;97986.50;4964048;28;20090;-77
2020/12/08 06:13:01;;;;;;;28.60;18.48;;;;;;;6.13;65.77;97982.91;4935846;29;20037;-78
2020/12/08 06:15:47;;;;;;;27.98;16.92;;;;;;;6.20;65.70;97975.00;4936641;29;20098;-76
2020/12/08 06:18:13;;;;;;;27.50;17.40;;;;;;;6.87;63.93;97982.38;4950149;28;20035;-77
2020/12/08 06:20:39;;;;;;;31.75;18.35;;;;;;;6.67;64.18;97982.78;4951153;28;20328;-77
2020/12/08 06:23:06;;;;;;;23.05;16.50;;;;;;;6.58;64.63;97981.22;4967081;28;20114;-77
2020/12/08 06:25:31;;;;;;;21.50;14.18;;;;;;;6.78;63.66;97983.44;4933405;29;20031;-76
2020/12/08 06:28:03;;;;;;;17.95;12.77;;;;;;;6.69;64.75;97993.13;4965141;28;20086;-78
2020/12/08 06:30:29;;;;;;;22.75;13.55;;;;;;;6.64;64.91;97993.22;4969743;28;20046;-77
2020/12/08 06:32:56;;;;;;;16.00;9.50;;;;;;;6.58;65.86;97986.41;4934793;29;20130;-76
2020/12/08 06:35:22;;;;;;;17.73;10.32;;;;;;;7.15;64.82;97993.06;4949512;28;20035;-77
2020/12/08 06:37:51;;;;;;;15.40;9.90;;;;;;;6.90;65.00;97997.91;4951782;28;20102;-78
2020/12/08 06:40:20;;;;;;;18.75;12.73;;;;;;;7.33;63.82;97997.88;4949898;28;20039;-76
2020/12/08 06:42:51;;;;;;;27.38;16.80;;;;;;;7.23;63.60;98001.56;4941732;28;20043;-77
2020/12/08 06:45:20;;;;;;;21.38;13.15;;;;;;;6.94;63.95;98003.03;4950666;28;20109;-77
2020/12/08 06:47:46;;;;;;;22.73;12.93;;;;;;;7.37;62.75;97989.13;4947186;28;20436;-81
2020/12/08 06:50:31;;;;;;;11.95;8.35;;;;;;;6.96;64.59;97997.78;4952846;28;20038;-79
2020/12/08 06:52:59;;;;;;;14.07;9.23;;;;;;;7.04;64.15;98001.09;4955553;28;20038;-79
2020/12/08 06:55:30;;;;;;;17.80;8.95;;;;;;;7.27;63.75;98004.06;4937499;28;20039;-77
2020/12/08 06:58:05;;;;;;;16.80;8.82;;;;;;;7.35;63.72;98001.28;4950468;29;21830;-77
2020/12/08 07:00:32;;;;;;;19.95;12.77;;;;;;;6.67;64.68;98005.28;4934365;29;20043;-78
2020/12/08 07:03:00;;;;;;;20.25;13.30;;;;;;;6.61;65.35;98011.44;4951006;28;20391;-79
2020/12/08 07:05:31;;;;;;;24.25;16.48;;;;;;;6.62;64.72;98002.75;4933093;28;20371;-79
2020/12/08 07:08:01;;;;;;;28.83;17.93;;;;;;;5.76;67.58;98011.97;4952468;28;20323;-79
2020/12/08 07:10:27;;;;;;;25.42;16.45;;;;;;;6.30;66.33;98012.88;4944729;29;20462;-79
2020/12/08 07:12:56;;;;;;;27.80;18.45;;;;;;;6.23;66.75;98012.13;4953372;28;20121;-79
2020/12/08 07:15:26;;;;;;;25.60;16.83;;;;;;;6.58;65.60;98011.50;4962625;28;20055;-80
2020/12/08 07:18:02;;;;;;;30.20;18.15;;;;;;;6.84;64.16;98009.28;4952350;28;20378;-79
2020/12/08 07:20:28;;;;;;;29.73;17.27;;;;;;;7.11;63.56;98019.97;4950946;28;20051;-79
2020/12/08 07:22:53;;;;;;;25.85;17.02;;;;;;;6.84;63.47;98014.47;4939499;28;20447;-79
2020/12/08 07:25:20;;;;;;;29.55;17.73;;;;;;;6.65;64.24;98027.81;4944848;28;20032;-78
2020/12/08 07:27:51;;;;;;;27.63;16.95;;;;;;;6.45;64.73;98036.81;4952941;28;20130;-78
2020/12/08 07:30:18;;;;;;;29.23;17.92;;;;;;;6.65;64.80;98033.84;4960768;28;20103;-79
2020/12/08 07:32:44;;;;;;;32.92;18.42;;;;;;;6.68;64.53;98043.31;4958591;28;20050;-79
2020/12/08 07:35:23;;;;;;;21.60;13.32;;;;;;;6.99;64.51;98034.94;4939114;28;20027;-78
2020/12/08 07:37:55;;;;;;;18.02;13.45;;;;;;;6.87;66.12;98037.75;4950121;28;20438;-78
2020/12/08 07:40:22;;;;;;;23.30;14.35;;;;;;;7.28;65.33;98039.53;4964274;28;20043;-78
2020/12/08 07:42:51;;;;;;;23.55;14.43;;;;;;;7.41;65.34;98043.59;4966374;28;20031;-78
2020/12/08 07:45:21;;;;;;;23.27;14.02;;;;;;;7.34;66.23;98044.59;4969143;28;20133;-79
2020/12/08 07:47:58;;;;;;;19.08;13.65;;;;;;;7.50;66.36;98050.31;4958951;28;20027;-78
2020/12/08 07:50:27;;;;;;;22.63;14.70;;;;;;;7.88;64.67;98063.31;4945108;28;20429;-79
2020/12/08 07:53:03;;;;;;;28.58;14.85;;;;;;;7.89;64.38;98057.25;4952648;28;20031;-79
2020/12/08 07:55:37;;;;;;;21.83;14.38;;;;;;;8.03;64.29;98069.06;4938026;28;20517;-79
2020/12/08 07:58:09;;;;;;;20.23;13.50;;;;;;;8.02;64.29;98072.53;4945767;28;20740;-80
2020/12/08 08:00:35;;;;;;;18.23;13.23;;;;;;;7.70;65.39;98068.09;4949917;28;20272;-80
2020/12/08 08:03:01;;;;;;;18.73;14.27;;;;;;;7.53;66.43;98081.41;4936264;29;20459;-79
2020/12/08 08:05:26;;;;;;;21.77;14.07;;;;;;;7.96;64.74;98078.72;4949564;29;20035;-80
2020/12/08 08:07:52;;;;;;;20.92;12.88;;;;;;;7.57;65.22;98079.63;4934729;29;20086;-80
2020/12/08 08:10:17;;;;;;;17.92;11.32;;;;;;;7.46;66.86;98087.66;4942040;29;20039;-79
2020/12/08 08:12:43;;;;;;;13.38;11.38;;;;;;;7.88;65.44;98086.72;4956090;28;20043;-81
2020/12/08 08:15:09;;;;;;;25.10;11.30;;;;;;;8.26;64.76;98082.38;4941755;29;20051;-79
2020/12/08 08:17:35;;;;;;;18.13;9.43;;;;;;;8.11;65.65;98086.19;4954934;28;20039;-79
2020/12/08 08:20:01;;;;;;;14.93;10.15;;;;;;;8.27;64.61;98084.94;4954682;28;20105;-79
2020/12/08 08:22:27;;;;;;;13.57;10.00;;;;;;;8.36;64.54;98090.84;4937546;29;20039;-78
2020/12/08 08:24:55;;;;;;;16.60;9.70;;;;;;;8.27;64.69;98095.34;4954105;28;20031;-77
2020/12/08 08:27:21;;;;;;;14.52;7.75;;;;;;;8.31;64.67;98091.81;4939498;29;20043;-77
2020/12/08 08:29:47;;;;;;;11.50;6.45;;;;;;;8.51;63.58;98096.53;4956318;28;20139;-79
2020/12/08 08:32:13;;;;;;;7.60;5.22;;;;;;;8.00;64.72;98098.59;4937246;29;20089;-78
2020/12/08 08:34:39;;;;;;;7.13;5.05;;;;;;;8.24;63.81;98098.03;4952487;28;20550;-77
2020/12/08 08:37:05;;;;;;;11.55;5.13;;;;;;;8.28;64.06;98106.63;4937921;28;20694;-78
2020/12/08 08:39:30;;;;;;;8.30;5.43;;;;;;;8.70;62.44;98113.41;4942609;28;20039;-77
2020/12/08 08:41:56;;;;;;;9.82;5.50;;;;;;;8.64;62.45;98110.94;4955716;29;20031;-77
2020/12/08 08:44:22;;;;;;;10.45;5.60;;;;;;;8.63;62.42;98117.03;4955949;28;20475;-78
2020/12/08 08:46:48;;;;;;;7.30;4.45;;;;;;;8.37;62.91;98116.84;4955370;28;20134;-77
2020/12/08 08:49:19;;;;;;;9.80;4.07;;;;;;;9.21;60.88;98112.94;4954088;28;20032;-79
2020/12/08 08:51:47;;;;;;;6.65;3.58;;;;;;;9.32;60.02;98123.91;4969942;28;20118;-77
2020/12/08 08:54:16;;;;;;;9.65;4.47;;;;;;;9.12;60.78;98121.84;4968083;28;20070;-79
2020/12/08 08:56:43;;;;;;;7.85;3.80;;;;;;;9.14;60.78;98124.44;4959429;28;20410;-77
2020/12/08 08:59:12;;;;;;;8.65;3.50;;;;;;;8.81;61.47;98120.09;4939415;29;20090;-78
2020/12/08 09:01:38;;;;;;;5.15;3.10;;;;;;;8.58;61.70;98118.94;4954431;28;20035;-79
2020/12/08 09:04:04;;;;;;;4.53;2.75;;;;;;;8.98;60.87;98123.97;4968979;28;20031;-78
2020/12/08 09:06:30;;;;;;;6.28;2.72;;;;;;;8.91;60.91;98135.47;4938073;29;20035;-79
2020/12/08 09:08:59;;;;;;;6.07;3.50;;;;;;;8.93;60.82;98127.56;4971327;28;20042;-78
2020/12/08 09:11:38;;;;;;;6.50;2.60;;;;;;;8.97;60.66;98130.06;4944323;28;20130;-78
2020/12/08 09:14:05;;;;;;;5.68;2.35;;;;;;;8.79;61.15;98120.13;4969621;28;20035;-77
2020/12/08 09:16:31;;;;;;;5.05;2.60;;;;;;;8.77;61.29;98131.50;4939063;29;20113;-77
2020/12/08 09:18:57;;;;;;;6.45;2.45;;;;;;;8.44;62.44;98128.78;4936788;28;20480;-78
2020/12/08 09:21:22;;;;;;;7.22;2.25;;;;;;;8.66;62.04;98142.16;4940008;29;20125;-77
2020/12/08 09:23:50;;;;;;;4.20;2.30;;;;;;;8.80;61.01;98134.88;4937627;28;20475;-77
2020/12/08 09:26:16;;;;;;;2.92;2.38;;;;;;;8.76;61.86;98138.44;4943443;29;20201;-78
2020/12/08 09:28:46;;;;;;;5.60;2.50;;;;;;;8.37;63.18;98135.06;4944115;29;20115;-80
2020/12/08 09:31:15;;;;;;;3.85;2.15;;;;;;;8.38;62.62;98135.91;4951004;28;20046;-76
2020/12/08 09:33:41;;;;;;;4.75;2.08;;;;;;;8.46;62.49;98129.63;4953496;28;20474;-77
2020/12/08 09:36:07;;;;;;;5.47;1.88;;;;;;;8.75;62.05;98123.72;4950053;28;20039;-79
2020/12/08 09:38:33;;;;;;;4.82;2.50;;;;;;;9.05;60.78;98122.94;4954495;28;20035;-78
2020/12/08 09:41:02;;;;;;;7.45;3.75;;;;;;;8.94;61.04;98130.16;4952864;28;20370;-79
2020/12/08 09:43:30;;;;;;;4.72;2.60;;;;;;;8.68;61.84;98130.81;4934137;29;20034;-78
2020/12/08 09:45:56;;;;;;;6.00;2.00;;;;;;;8.87;61.51;98130.38;4953912;28;20371;-77
2020/12/08 09:48:22;;;;;;;4.63;1.85;;;;;;;8.56;62.29;98133.72;4954351;28;20115;-79
2020/12/08 09:50:48;;;;;;;2.88;1.85;;;;;;;8.69;61.73;98129.91;4943490;28;20041;-78
2020/12/08 09:53:14;;;;;;;3.55;1.90;;;;;;;9.33;60.38;98130.00;4954469;28;20118;-78
2020/12/08 09:55:39;;;;;;;3.00;1.95;;;;;;;8.75;61.89;98148.00;4953798;28;20453;-78
2020/12/08 09:58:05;;;;;;;4.13;1.80;;;;;;;9.55;59.41;98137.16;4940066;28;20035;-79
2020/12/08 10:00:31;;;;;;;5.07;2.10;;;;;;;9.14;60.60;98150.47;4936763;29;20058;-79
2020/12/08 10:02:57;;;;;;;4.55;1.50;;;;;;;8.86;61.39;98146.88;4953968;28;20193;-78
2020/12/08 10:05:23;;;;;;;2.88;1.88;;;;;;;8.90;61.55;98138.94;4947045;28;20047;-78
2020/12/08 10:07:49;;;;;;;3.20;1.30;;;;;;;8.92;61.11;98152.75;4953115;28;20490;-78
2020/12/08 10:10:15;;;;;;;2.13;1.52;;;;;;;9.02;61.03;98149.03;4937446;28;20053;-79
2020/12/08 10:12:42;;;;;;;5.38;1.70;;;;;;;9.50;59.16;98140.78;4967089;28;20201;-79
2020/12/08 10:15:08;;;;;;;2.95;1.40;;;;;;;9.73;58.86;98148.00;4967400;28;20470;-79
2020/12/08 10:17:35;;;;;;;3.70;1.30;;;;;;;9.59;59.00;98151.00;4955382;28;20051;-79
2020/12/08 10:20:00;;;;;;;2.15;1.10;;;;;;;9.51;59.28;98152.94;4959006;28;20039;-79
2020/12/08 10:22:26;;;;;;;2.20;1.20;;;;;;;9.21;60.19;98148.56;4949631;28;20042;-78
2020/12/08 10:24:52;;;;;;;1.77;1.00;;;;;;;9.43;59.37;98149.69;4974021;28;20085;-80
2020/12/08 10:27:18;;;;;;;2.40;1.10;;;;;;;9.15;59.89;98149.59;4952326;28;20213;-77
2020/12/08 10:29:43;;;;;;;3.03;1.08;;;;;;;8.94;60.66;98155.34;4953112;28;20122;-78
2020/12/08 10:32:09;;;;;;;2.03;1.17;;;;;;;8.76;61.25;98154.06;4935831;28;20105;-76
2020/12/08 10:34:36;;;;;;;3.28;1.15;;;;;;;9.22;60.02;98156.34;4960189;28;20047;-77
2020/12/08 10:37:02;;;;;;;0.70;0.70;;;;;;;8.89;60.89;98155.47;4953368;28;20110;-78
2020/12/08 10:39:27;;;;;;;2.70;1.20;;;;;;;8.91;60.96;98158.91;4967547;28;20047;-78
2020/12/08 10:41:56;;;;;;;3.85;1.45;;;;;;;9.18;60.35;98155.56;4957787;28;20046;-77
2020/12/08 10:44:22;;;;;;;3.25;1.38;;;;;;;8.97;61.04;98155.28;4969048;28;20043;-77
2020/12/08 10:46:50;;;;;;;4.38;1.13;;;;;;;8.95;61.01;98157.06;4947799;29;20177;-77
2020/12/08 10:49:15;;;;;;;2.50;0.98;;;;;;;8.99;60.84;98153.47;4956913;28;20042;-77
2020/12/08 10:51:41;;;;;;;2.03;1.08;;;;;;;9.04;61.42;98152.47;4955286;28;21112;-76
2020/12/08 10:54:07;;;;;;;3.60;1.30;;;;;;;8.53;62.50;98145.97;4949573;28;20035;-77
2020/12/08 10:56:33;;;;;;;4.68;1.42;;;;;;;8.21;63.51;98151.88;4952306;28;20398;-77
2020/12/08 10:58:59;;;;;;;3.17;1.50;;;;;;;8.67;62.45;98154.28;4935617;29;20410;-77
2020/12/08 11:01:26;;;;;;;4.25;1.67;;;;;;;8.86;62.84;98155.56;4950653;28;20069;-77
2020/12/08 11:03:53;;;;;;;2.35;1.60;;;;;;;8.42;63.26;98154.03;4947939;28;20702;-80
2020/12/08 11:06:27;;;;;;;2.65;1.30;;;;;;;8.80;62.43;98160.91;4954720;28;20035;-77
2020/12/08 11:08:54;;;;;;;5.68;1.45;;;;;;;9.07;61.15;98154.13;4946415;28;20035;-80
2020/12/08 11:11:28;;;;;;;3.10;1.63;;;;;;;8.98;61.56;98151.75;4948727;28;20069;-78
2020/12/08 11:13:58;;;;;;;6.22;1.55;;;;;;;9.25;60.39;98153.66;4964232;28;20043;-78
2020/12/08 11:16:26;;;;;;;3.92;1.52;;;;;;;9.04;60.87;98151.59;4953689;28;20484;-77
2020/12/08 11:18:53;;;;;;;4.47;1.63;;;;;;;9.06;61.17;98153.28;4951340;28;20161;-80
2020/12/08 11:21:27;;;;;;;4.10;1.40;;;;;;;9.51;59.80;98148.56;4952497;28;20042;-77
2020/12/08 11:23:54;;;;;;;5.95;1.60;;;;;;;9.21;60.99;98151.19;4952434;28;20044;-80
2020/12/08 11:26:20;;;;;;;6.40;1.58;;;;;;;8.91;61.17;98150.22;4968525;28;20101;-82
2020/12/08 11:28:46;;;;;;;2.50;1.40;;;;;;;9.36;60.13;98156.81;4957364;28;20031;-78
2020/12/08 11:31:13;;;;;;;2.40;1.35;;;;;;;9.32;60.42;98160.41;4946167;28;20419;-78
2020/12/08 11:33:39;;;;;;;6.78;1.92;;;;;;;9.60;60.09;98148.31;4954047;28;20031;-79